Elizabeth — 9V8794 — position and weather

sailwx.info

Track history (hours):
 
Tides and Currents Weather Stations Pressure Air Temp Water Temp Dewpoint Dewpoint Depression Visibility Wind Speed Wind Dir Waves Ship Positions

Elizabeth

Last reported at 2014-Nov-22 14:26 UTC. Time now 2014-Nov-24 18:06 UTC.
Position N 35°58' W 005°35'.

Length 190 m; draft 10.9 m.

Type: Cargo ship. MMSI: 566073000.

Date/timePositionNaut miles runAvg speedWind from/ knotsBaromVisibWave heightAir tempDewpointWater temp
2014-Nov-22 14:26N 35°58' W 005°35'1011.1
2014-Nov-22 13:33N 36°01' W 005°24'5 4.8
2014-Nov-22 12:32N 36°06' W 005°24'0 0.1
2014-Nov-22 11:32N 36°06' W 005°24'0 0.0
2014-Nov-22 10:32N 36°06' W 005°24'0 0.1
2014-Nov-22 09:32N 36°06' W 005°25'0 0.1
2014-Nov-22 08:32N 36°06' W 005°25'1 0.8
2014-Nov-22 07:32N 36°06' W 005°24'7 7.0
2014-Nov-22 06:33N 36°05' W 005°15'20912.0
2014-Nov-21 13:13N 36°37' W 000°59'811.5
2014-Nov-21 12:33N 36°38' W 000°50'1211.9
2014-Nov-21 11:33N 36°41' W 000°35'1212.5
2014-Nov-21 10:33N 36°43' W 000°20'1313.0
2014-Nov-21 09:33N 36°45' W 000°04'1712.9
2014-Nov-21 08:15N 36°48' E 000°17'1012.9
2014-Nov-21 07:30N 36°50' E 000°29'1213.0
2014-Nov-21 06:32N 36°53' E 000°44'1512.6
2014-Nov-21 05:20N 36°56' E 001°03'10311.5
2014-Nov-20 20:24N 37°13' E 003°09'1011.9
2014-Nov-20 19:33N 37°14' E 003°22'2311.6
2014-Nov-20 17:32N 37°15' E 003°51'1212.2
2014-Nov-20 16:33N 37°17' E 004°06'1212.4
2014-Nov-20 15:33N 37°18' E 004°22'1212.3
2014-Nov-20 14:33N 37°20' E 004°37'1212.3
2014-Nov-20 13:33N 37°21' E 004°52'1312.5
2014-Nov-20 12:33N 37°21' E 005°08'1312.7
2014-Nov-20 11:33N 37°22' E 005°24'1312.6
2014-Nov-20 10:31N 37°24' E 005°40'1312.9
2014-Nov-20 09:33N 37°25' E 005°56'1312.7
2014-Nov-20 08:32N 37°26' E 006°12'6912.6
2014-Nov-20 03:05N 37°32' E 007°38'713.0
2014-Nov-20 02:33N 37°32' E 007°47'1313.2
2014-Nov-20 01:32N 37°33' E 008°04'19011.9
2014-Nov-19 09:32N 37°06' E 012°00'5212.9
2014-Nov-19 05:33N 36°41' E 012°57'1312.9
2014-Nov-19 04:33N 36°35' E 013°11'3912.6
2014-Nov-19 01:29N 36°18' E 013°54'1112.4
2014-Nov-19 00:33N 36°15' E 014°08'1312.3
2014-Nov-18 23:32N 36°13' E 014°23'1312.2
2014-Nov-18 22:29N 36°09' E 014°38'1712.2
2014-Nov-18 21:05N 36°04' E 014°58'3312.2
2014-Nov-18 18:22N 35°55' E 015°38'1312.2
2014-Nov-18 17:20N 35°52' E 015°53'28612.3
2014-Nov-17 18:08N 34°27' E 021°28'3812.9
2014-Nov-17 15:13N 34°16' E 022°11'  
Track history (hours):
 
Tides and Currents Weather Stations Pressure Air Temp Water Temp Dewpoint Dewpoint Depression Visibility Wind Speed Wind Dir Waves Ship Positions

Elizabeth

Last reported at 2014-Nov-22 14:26 UTC. Time now 2014-Nov-24 18:06 UTC.
Position N 35°58' W 005°35'.

Length 190 m; draft 10.9 m.

Type: Cargo ship. MMSI: 566073000.

Date/timePositionNaut miles runAvg speedWind from/ knotsBaromVisibWave heightAir tempDewpointWater temp
2014-Nov-22 14:26N 35°58' W 005°35'1011.1
2014-Nov-22 13:33N 36°01' W 005°24'5 4.8
2014-Nov-22 12:32N 36°06' W 005°24'0 0.1
2014-Nov-22 11:32N 36°06' W 005°24'0 0.0
2014-Nov-22 10:32N 36°06' W 005°24'0 0.1
2014-Nov-22 09:32N 36°06' W 005°25'0 0.1
2014-Nov-22 08:32N 36°06' W 005°25'1 0.8
2014-Nov-22 07:32N 36°06' W 005°24'7 7.0
2014-Nov-22 06:33N 36°05' W 005°15'20912.0
2014-Nov-21 13:13N 36°37' W 000°59'811.5
2014-Nov-21 12:33N 36°38' W 000°50'1211.9
2014-Nov-21 11:33N 36°41' W 000°35'1212.5
2014-Nov-21 10:33N 36°43' W 000°20'1313.0
2014-Nov-21 09:33N 36°45' W 000°04'1712.9
2014-Nov-21 08:15N 36°48' E 000°17'1012.9
2014-Nov-21 07:30N 36°50' E 000°29'1213.0
2014-Nov-21 06:32N 36°53' E 000°44'1512.6
2014-Nov-21 05:20N 36°56' E 001°03'10311.5
2014-Nov-20 20:24N 37°13' E 003°09'1011.9
2014-Nov-20 19:33N 37°14' E 003°22'2311.6
2014-Nov-20 17:32N 37°15' E 003°51'1212.2
2014-Nov-20 16:33N 37°17' E 004°06'1212.4
2014-Nov-20 15:33N 37°18' E 004°22'1212.3
2014-Nov-20 14:33N 37°20' E 004°37'1212.3
2014-Nov-20 13:33N 37°21' E 004°52'1312.5
2014-Nov-20 12:33N 37°21' E 005°08'1312.7
2014-Nov-20 11:33N 37°22' E 005°24'1312.6
2014-Nov-20 10:31N 37°24' E 005°40'1312.9
2014-Nov-20 09:33N 37°25' E 005°56'1312.7
2014-Nov-20 08:32N 37°26' E 006°12'6912.6
2014-Nov-20 03:05N 37°32' E 007°38'713.0
2014-Nov-20 02:33N 37°32' E 007°47'1313.2
2014-Nov-20 01:32N 37°33' E 008°04'19011.9
2014-Nov-19 09:32N 37°06' E 012°00'5212.9
2014-Nov-19 05:33N 36°41' E 012°57'1312.9
2014-Nov-19 04:33N 36°35' E 013°11'3912.6
2014-Nov-19 01:29N 36°18' E 013°54'1112.4
2014-Nov-19 00:33N 36°15' E 014°08'1312.3
2014-Nov-18 23:32N 36°13' E 014°23'1312.2
2014-Nov-18 22:29N 36°09' E 014°38'1712.2
2014-Nov-18 21:05N 36°04' E 014°58'3312.2
2014-Nov-18 18:22N 35°55' E 015°38'1312.2
2014-Nov-18 17:20N 35°52' E 015°53'28612.3
2014-Nov-17 18:08N 34°27' E 021°28'3812.9
2014-Nov-17 15:13N 34°16' E 022°11'  

Dump ship's entire track history